Time,TemperatureF,DewpointF,PressureIn,WindDirection,WindDirectionDegrees,WindSpeedMPH,WindSpeedGustMPH,Humidity,HourlyPrecipIn,Conditions,Clouds,dailyrainin,SolarRadiationWatts/m^2,SoftwareType,DateUTC
2013-10-01 15:52:00,53.0,29.0,-100.00,NNE,14,2.0,8.0,39,0.00,,,0.00,404.000000,,2013-10-01 23:52:00,
2013-10-01 16:02:00,53.0,29.0,-100.00,NNE,14,2.0,8.0,39,0.00,,,0.00,404.000000,,2013-10-02 00:02:00,
2013-10-01 16:12:00,53.0,29.0,-100.00,NNE,14,2.0,8.0,39,0.00,,,0.00,404.000000,,2013-10-02 00:12:00,
2013-10-01 16:21:00,53.0,29.0,-100.00,NNE,14,2.0,8.0,39,0.00,,,0.00,404.000000,,2013-10-02 00:21:00,
2013-10-01 16:52:00,52.0,28.0,-100.00,ESE,123,0.0,5.0,40,0.00,,,0.00,258.000000,,2013-10-02 00:52:00,
2013-10-01 17:01:00,52.0,28.0,-100.00,ESE,123,0.0,5.0,40,0.00,,,0.00,258.000000,,2013-10-02 01:01:00,
2013-10-01 17:12:00,52.0,28.0,-100.00,ESE,123,0.0,5.0,40,0.00,,,0.00,258.000000,,2013-10-02 01:12:00,
2013-10-01 17:21:00,52.0,28.0,-100.00,ESE,123,0.0,5.0,40,0.00,,,0.00,258.000000,,2013-10-02 01:21:00,
2013-10-01 17:52:00,51.0,29.0,-100.00,NE,53,1.0,6.0,42,0.00,,,0.00,163.000000,,2013-10-02 01:52:00,
2013-10-01 18:02:00,51.0,29.0,-100.00,NE,53,1.0,6.0,42,0.00,,,0.00,163.000000,,2013-10-02 02:02:00,
2013-10-01 18:11:00,51.0,29.0,-100.00,NE,53,1.0,6.0,42,0.00,,,0.00,163.000000,,2013-10-02 02:11:00,
2013-10-01 18:22:00,51.0,29.0,-100.00,NE,53,1.0,6.0,42,0.00,,,0.00,163.000000,,2013-10-02 02:22:00,
2013-10-01 18:52:00,52.0,30.0,-100.00,ENE,57,3.0,5.0,42,0.00,,,0.00,145.000000,,2013-10-02 02:52:00,
2013-10-01 19:02:00,52.0,30.0,-100.00,ENE,57,3.0,5.0,42,0.00,,,0.00,145.000000,,2013-10-02 03:02:00,
2013-10-01 19:12:00,52.0,30.0,-100.00,ENE,57,3.0,5.0,42,0.00,,,0.00,145.000000,,2013-10-02 03:12:00,
2013-10-01 19:22:00,52.0,30.0,-100.00,ENE,57,3.0,5.0,42,0.00,,,0.00,145.000000,,2013-10-02 03:22:00,
2013-10-01 19:54:00,48.0,29.0,-100.00,ENE,62,2.0,5.0,48,0.00,,,0.00,67.000000,,2013-10-02 03:54:00,
2013-10-01 20:05:00,48.0,29.0,-100.00,ENE,62,2.0,5.0,48,0.00,,,0.00,67.000000,,2013-10-02 04:05:00,
2013-10-01 20:13:00,48.0,29.0,-100.00,ENE,62,2.0,5.0,48,0.00,,,0.00,67.000000,,2013-10-02 04:13:00,
2013-10-01 20:24:00,48.0,29.0,-100.00,ENE,62,2.0,5.0,48,0.00,,,0.00,67.000000,,2013-10-02 04:24:00,
2013-10-01 20:54:00,44.0,31.0,-100.00,ENE,64,1.0,4.0,59,0.00,,,0.00,2.000000,,2013-10-02 04:54:00,
2013-10-01 21:04:00,44.0,31.0,-100.00,ENE,64,1.0,4.0,59,0.00,,,0.00,2.000000,,2013-10-02 05:04:00,
2013-10-01 21:13:00,44.0,31.0,-100.00,ENE,64,1.0,4.0,59,0.00,,,0.00,2.000000,,2013-10-02 05:13:00,
2013-10-01 21:22:00,44.0,31.0,-100.00,ENE,64,1.0,4.0,59,0.00,,,0.00,2.000000,,2013-10-02 05:22:00,
2013-10-01 21:53:00,43.0,33.0,-100.00,NE,45,0.0,2.0,68,0.00,,,0.00,0.000000,,2013-10-02 05:53:00,
2013-10-01 22:03:00,43.0,33.0,-100.00,NE,45,0.0,2.0,68,0.00,,,0.00,0.000000,,2013-10-02 06:03:00,
2013-10-01 22:12:00,43.0,33.0,-100.00,NE,45,0.0,2.0,68,0.00,,,0.00,0.000000,,2013-10-02 06:12:00,
2013-10-01 22:21:00,43.0,33.0,-100.00,NE,45,0.0,2.0,68,0.00,,,0.00,0.000000,,2013-10-02 06:21:00,
2013-10-01 22:52:00,42.0,34.0,-100.00,NNE,17,0.0,3.0,74,0.00,,,0.00,0.000000,,2013-10-02 06:52:00,
2013-10-01 23:01:00,42.0,34.0,-100.00,NNE,17,0.0,3.0,74,0.00,,,0.00,0.000000,,2013-10-02 07:01:00,
2013-10-01 23:11:00,42.0,34.0,-100.00,NNE,17,0.0,3.0,74,0.00,,,0.00,0.000000,,2013-10-02 07:11:00,
2013-10-01 23:21:00,42.0,34.0,-100.00,NNE,17,0.0,3.0,74,0.00,,,0.00,0.000000,,2013-10-02 07:21:00,
2013-10-01 23:52:00,42.0,34.0,-100.00,NNE,29,4.0,5.0,73,0.00,,,-99.99,0.000000,,2013-10-02 07:52:00,